sensor_id;sensor_type;location;lat;lon;timestamp;temperature;humidity
69895;DHT22;57172;52.034;5.090;2022-08-11T00:03:56;22.30;55.60
69895;DHT22;57172;52.034;5.090;2022-08-11T00:06:34;22.30;55.60
69895;DHT22;57172;52.034;5.090;2022-08-11T00:09:04;22.20;55.60
69895;DHT22;57172;52.034;5.090;2022-08-11T00:11:41;22.20;55.50
69895;DHT22;57172;52.034;5.090;2022-08-11T00:14:19;22.20;55.40
69895;DHT22;57172;52.034;5.090;2022-08-11T00:17:00;22.20;55.50
69895;DHT22;57172;52.034;5.090;2022-08-11T00:19:34;22.10;55.30
69895;DHT22;57172;52.034;5.090;2022-08-11T00:22:22;22.10;55.20
69895;DHT22;57172;52.034;5.090;2022-08-11T00:24:50;22.00;55.10
69895;DHT22;57172;52.034;5.090;2022-08-11T00:27:34;22.00;55.10
69895;DHT22;57172;52.034;5.090;2022-08-11T00:30:04;22.00;55.10
69895;DHT22;57172;52.034;5.090;2022-08-11T00:32:32;21.90;55.00
69895;DHT22;57172;52.034;5.090;2022-08-11T00:35:00;21.90;55.00
69895;DHT22;57172;52.034;5.090;2022-08-11T00:37:49;21.90;55.10
69895;DHT22;57172;52.034;5.090;2022-08-11T00:40:24;21.80;54.90
69895;DHT22;57172;52.034;5.090;2022-08-11T00:43:06;21.80;55.00
69895;DHT22;57172;52.034;5.090;2022-08-11T00:46:06;21.70;54.80
69895;DHT22;57172;52.034;5.090;2022-08-11T00:51:49;21.70;54.90
69895;DHT22;57172;52.034;5.090;2022-08-11T01:00:16;21.60;54.70
69895;DHT22;57172;52.034;5.090;2022-08-11T01:08:27;21.40;54.70
69895;DHT22;57172;52.034;5.090;2022-08-11T01:46:56;21.00;55.00
69895;DHT22;57172;52.034;5.090;2022-08-11T01:49:54;20.90;55.00
69895;DHT22;57172;52.034;5.090;2022-08-11T01:53:11;20.90;55.00
69895;DHT22;57172;52.034;5.090;2022-08-11T02:01:55;20.80;55.20
69895;DHT22;57172;52.034;5.090;2022-08-11T02:05:26;20.80;55.20
69895;DHT22;57172;52.034;5.090;2022-08-11T02:07:54;20.80;55.40
69895;DHT22;57172;52.034;5.090;2022-08-11T02:10:26;20.70;55.40
69895;DHT22;57172;52.034;5.090;2022-08-11T02:16:28;20.70;55.80
69895;DHT22;57172;52.034;5.090;2022-08-11T02:22:56;20.60;56.10
69895;DHT22;57172;52.034;5.090;2022-08-11T02:25:34;20.50;56.20
69895;DHT22;57172;52.034;5.090;2022-08-11T02:28:20;20.50;56.40
69895;DHT22;57172;52.034;5.090;2022-08-11T02:31:18;20.50;56.50
69895;DHT22;57172;52.034;5.090;2022-08-11T02:34:41;20.40;56.70
69895;DHT22;57172;52.034;5.090;2022-08-11T02:37:38;20.40;56.80
69895;DHT22;57172;52.034;5.090;2022-08-11T02:43:00;20.30;57.10
69895;DHT22;57172;52.034;5.090;2022-08-11T02:45:51;20.20;57.50
69895;DHT22;57172;52.034;5.090;2022-08-11T02:48:46;20.20;57.70
69895;DHT22;57172;52.034;5.090;2022-08-11T02:54:38;20.10;58.00
69895;DHT22;57172;52.034;5.090;2022-08-11T02:57:46;20.10;58.30
69895;DHT22;57172;52.034;5.090;2022-08-11T03:00:14;20.10;58.40
69895;DHT22;57172;52.034;5.090;2022-08-11T03:05:41;20.00;58.70
69895;DHT22;57172;52.034;5.090;2022-08-11T03:11:02;19.90;59.00
69895;DHT22;57172;52.034;5.090;2022-08-11T03:14:13;19.90;59.30
69895;DHT22;57172;52.034;5.090;2022-08-11T03:27:40;19.80;59.80
69895;DHT22;57172;52.034;5.090;2022-08-11T03:33:07;19.70;60.00
69895;DHT22;57172;52.034;5.090;2022-08-11T03:36:27;19.70;60.30
69895;DHT22;57172;52.034;5.090;2022-08-11T03:45:48;19.50;60.50
69895;DHT22;57172;52.034;5.090;2022-08-11T03:48:45;19.50;60.70
69895;DHT22;57172;52.034;5.090;2022-08-11T04:00:18;19.30;61.30
69895;DHT22;57172;52.034;5.090;2022-08-11T04:03:22;19.30;61.30
69895;DHT22;57172;52.034;5.090;2022-08-11T04:20:01;19.10;62.20
69895;DHT22;57172;52.034;5.090;2022-08-11T04:22:52;19.10;62.10
69895;DHT22;57172;52.034;5.090;2022-08-11T04:25:42;19.10;62.40
69895;DHT22;57172;52.034;5.090;2022-08-11T04:28:49;19.10;62.50
69895;DHT22;57172;52.034;5.090;2022-08-11T04:34:36;19.00;62.50
69895;DHT22;57172;52.034;5.090;2022-08-11T04:37:11;19.00;62.70
69895;DHT22;57172;52.034;5.090;2022-08-11T04:52:10;18.90;63.20
69895;DHT22;57172;52.034;5.090;2022-08-11T04:55:42;19.00;63.00
69895;DHT22;57172;52.034;5.090;2022-08-11T04:59:00;19.00;63.20
69895;DHT22;57172;52.034;5.090;2022-08-11T05:17:08;19.00;63.80
69895;DHT22;57172;52.034;5.090;2022-08-11T05:19:55;19.00;63.70
69895;DHT22;57172;52.034;5.090;2022-08-11T05:22:49;19.00;63.80
69895;DHT22;57172;52.034;5.090;2022-08-11T05:25:35;19.00;63.80
69895;DHT22;57172;52.034;5.090;2022-08-11T05:28:55;19.10;63.70
69895;DHT22;57172;52.034;5.090;2022-08-11T05:31:54;19.10;63.70
69895;DHT22;57172;52.034;5.090;2022-08-11T05:34:43;19.20;63.70
69895;DHT22;57172;52.034;5.090;2022-08-11T05:40:00;19.30;63.60
69895;DHT22;57172;52.034;5.090;2022-08-11T05:42:54;19.30;63.60
69895;DHT22;57172;52.034;5.090;2022-08-11T05:45:40;19.30;63.50
69895;DHT22;57172;52.034;5.090;2022-08-11T05:48:35;19.40;63.30
69895;DHT22;57172;52.034;5.090;2022-08-11T05:51:21;19.50;63.30
69895;DHT22;57172;52.034;5.090;2022-08-11T05:54:24;19.50;63.20
69895;DHT22;57172;52.034;5.090;2022-08-11T05:57:29;19.60;63.10
69895;DHT22;57172;52.034;5.090;2022-08-11T06:00:17;19.60;63.00
69895;DHT22;57172;52.034;5.090;2022-08-11T06:02:50;19.60;62.90
69895;DHT22;57172;52.034;5.090;2022-08-11T06:05:30;19.70;62.90
69895;DHT22;57172;52.034;5.090;2022-08-11T06:08:07;19.80;62.80
69895;DHT22;57172;52.034;5.090;2022-08-11T06:10:37;19.80;62.70
69895;DHT22;57172;52.034;5.090;2022-08-11T06:13:06;19.90;62.60
69895;DHT22;57172;52.034;5.090;2022-08-11T06:15:43;19.90;62.50
69895;DHT22;57172;52.034;5.090;2022-08-11T06:18:11;20.00;62.40
69895;DHT22;57172;52.034;5.090;2022-08-11T06:20:55;20.10;62.20
69895;DHT22;57172;52.034;5.090;2022-08-11T06:23:31;20.20;62.10
69895;DHT22;57172;52.034;5.090;2022-08-11T06:26:07;20.20;61.90
69895;DHT22;57172;52.034;5.090;2022-08-11T06:28:37;20.30;61.80
69895;DHT22;57172;52.034;5.090;2022-08-11T06:31:19;20.40;61.60
69895;DHT22;57172;52.034;5.090;2022-08-11T06:42:45;20.80;60.70
69895;DHT22;57172;52.034;5.090;2022-08-11T06:45:24;20.80;60.50
69895;DHT22;57172;52.034;5.090;2022-08-11T06:47:53;20.90;60.20
69895;DHT22;57172;52.034;5.090;2022-08-11T06:50:22;21.00;59.80
69895;DHT22;57172;52.034;5.090;2022-08-11T06:53:08;21.10;59.70
69895;DHT22;57172;52.034;5.090;2022-08-11T06:55:40;21.20;59.40
69895;DHT22;57172;52.034;5.090;2022-08-11T06:58:29;21.30;59.20
69895;DHT22;57172;52.034;5.090;2022-08-11T07:01:32;21.50;59.00
69895;DHT22;57172;52.034;5.090;2022-08-11T07:04:06;21.60;58.50
69895;DHT22;57172;52.034;5.090;2022-08-11T07:06:53;21.70;58.40
69895;DHT22;57172;52.034;5.090;2022-08-11T07:09:59;21.90;58.00
69895;DHT22;57172;52.034;5.090;2022-08-11T07:12:49;21.90;57.40
69895;DHT22;57172;52.034;5.090;2022-08-11T07:15:58;22.00;57.10
69895;DHT22;57172;52.034;5.090;2022-08-11T07:18:39;22.20;56.90
69895;DHT22;57172;52.034;5.090;2022-08-11T07:21:47;22.30;56.70
69895;DHT22;57172;52.034;5.090;2022-08-11T07:24:43;22.40;56.50
69895;DHT22;57172;52.034;5.090;2022-08-11T07:27:42;22.50;56.10
69895;DHT22;57172;52.034;5.090;2022-08-11T07:30:29;22.70;55.50
69895;DHT22;57172;52.034;5.090;2022-08-11T07:33:00;22.80;55.20
69895;DHT22;57172;52.034;5.090;2022-08-11T07:38:05;23.10;54.30
69895;DHT22;57172;52.034;5.090;2022-08-11T07:40:34;23.20;53.50
69895;DHT22;57172;52.034;5.090;2022-08-11T07:43:02;23.30;53.40
69895;DHT22;57172;52.034;5.090;2022-08-11T07:45:30;23.40;53.30
69895;DHT22;57172;52.034;5.090;2022-08-11T07:48:16;23.50;53.00
69895;DHT22;57172;52.034;5.090;2022-08-11T07:51:02;23.70;52.80
69895;DHT22;57172;52.034;5.090;2022-08-11T07:53:50;23.80;52.30
69895;DHT22;57172;52.034;5.090;2022-08-11T07:56:32;23.90;51.50
69895;DHT22;57172;52.034;5.090;2022-08-11T07:59:20;24.00;51.60
69895;DHT22;57172;52.034;5.090;2022-08-11T08:02:26;24.10;51.30
69895;DHT22;57172;52.034;5.090;2022-08-11T08:05:13;24.20;51.10
69895;DHT22;57172;52.034;5.090;2022-08-11T08:08:00;24.40;50.60
69895;DHT22;57172;52.034;5.090;2022-08-11T08:10:45;24.50;50.90
69895;DHT22;57172;52.034;5.090;2022-08-11T08:13:31;24.60;50.50
69895;DHT22;57172;52.034;5.090;2022-08-11T08:16:18;24.80;50.00
69895;DHT22;57172;52.034;5.090;2022-08-11T08:19:04;25.00;49.00
69895;DHT22;57172;52.034;5.090;2022-08-11T08:21:31;25.20;49.10
69895;DHT22;57172;52.034;5.090;2022-08-11T08:23:59;25.50;49.20
69895;DHT22;57172;52.034;5.090;2022-08-11T08:26:26;25.90;48.90
69895;DHT22;57172;52.034;5.090;2022-08-11T08:29:19;26.50;47.70
69895;DHT22;57172;52.034;5.090;2022-08-11T08:32:05;27.10;46.70
69895;DHT22;57172;52.034;5.090;2022-08-11T08:34:34;27.60;46.20
69895;DHT22;57172;52.034;5.090;2022-08-11T08:37:03;28.20;45.70
69895;DHT22;57172;52.034;5.090;2022-08-11T08:39:52;28.80;44.10
69895;DHT22;57172;52.034;5.090;2022-08-11T08:42:30;29.30;42.60
69895;DHT22;57172;52.034;5.090;2022-08-11T08:45:09;29.60;42.00
69895;DHT22;57172;52.034;5.090;2022-08-11T08:47:47;30.10;42.20
69895;DHT22;57172;52.034;5.090;2022-08-11T08:50:20;30.70;41.10
69895;DHT22;57172;52.034;5.090;2022-08-11T08:52:57;31.20;40.80
69895;DHT22;57172;52.034;5.090;2022-08-11T08:55:27;31.70;39.80
69895;DHT22;57172;52.034;5.090;2022-08-11T08:57:55;32.10;39.20
69895;DHT22;57172;52.034;5.090;2022-08-11T09:00:23;32.50;38.10
69895;DHT22;57172;52.034;5.090;2022-08-11T09:02:50;32.70;37.50
69895;DHT22;57172;52.034;5.090;2022-08-11T09:05:18;33.00;37.00
69895;DHT22;57172;52.034;5.090;2022-08-11T09:07:46;33.50;36.10
69895;DHT22;57172;52.034;5.090;2022-08-11T09:10:18;33.90;36.00
69895;DHT22;57172;52.034;5.090;2022-08-11T09:12:46;34.30;34.20
69895;DHT22;57172;52.034;5.090;2022-08-11T09:15:14;34.40;33.70
69895;DHT22;57172;52.034;5.090;2022-08-11T09:17:47;34.60;33.50
69895;DHT22;57172;52.034;5.090;2022-08-11T09:20:21;34.90;33.00
69895;DHT22;57172;52.034;5.090;2022-08-11T09:22:54;35.00;32.50
69895;DHT22;57172;52.034;5.090;2022-08-11T09:26:00;35.20;32.70
69895;DHT22;57172;52.034;5.090;2022-08-11T09:28:46;35.60;32.80
69895;DHT22;57172;52.034;5.090;2022-08-11T09:31:15;36.10;31.90
69895;DHT22;57172;52.034;5.090;2022-08-11T09:33:43;36.60;30.60
69895;DHT22;57172;52.034;5.090;2022-08-11T09:36:12;36.90;29.80
69895;DHT22;57172;52.034;5.090;2022-08-11T09:38:59;37.10;29.60
69895;DHT22;57172;52.034;5.090;2022-08-11T09:41:47;37.50;29.40
69895;DHT22;57172;52.034;5.090;2022-08-11T09:44:29;38.00;28.80
69895;DHT22;57172;52.034;5.090;2022-08-11T09:47:24;38.60;28.00
69895;DHT22;57172;52.034;5.090;2022-08-11T09:49:55;38.90;28.10
69895;DHT22;57172;52.034;5.090;2022-08-11T09:52:25;39.40;27.50
69895;DHT22;57172;52.034;5.090;2022-08-11T09:54:53;40.00;27.00
69895;DHT22;57172;52.034;5.090;2022-08-11T09:57:21;40.50;26.40
69895;DHT22;57172;52.034;5.090;2022-08-11T10:00:09;40.80;25.60
69895;DHT22;57172;52.034;5.090;2022-08-11T10:02:45;40.80;25.30
69895;DHT22;57172;52.034;5.090;2022-08-11T10:05:15;41.00;24.60
69895;DHT22;57172;52.034;5.090;2022-08-11T10:08:02;41.20;24.10
69895;DHT22;57172;52.034;5.090;2022-08-11T10:10:35;41.20;24.00
69895;DHT22;57172;52.034;5.090;2022-08-11T10:13:05;41.00;23.10
69895;DHT22;57172;52.034;5.090;2022-08-11T10:15:58;41.00;24.20
69895;DHT22;57172;52.034;5.090;2022-08-11T10:18:48;41.30;23.40
69895;DHT22;57172;52.034;5.090;2022-08-11T10:21:35;41.10;23.10
69895;DHT22;57172;52.034;5.090;2022-08-11T10:24:04;41.20;22.40
69895;DHT22;57172;52.034;5.090;2022-08-11T10:26:52;41.50;22.60
69895;DHT22;57172;52.034;5.090;2022-08-11T10:29:29;41.90;22.30
69895;DHT22;57172;52.034;5.090;2022-08-11T10:32:25;42.20;22.20
69895;DHT22;57172;52.034;5.090;2022-08-11T10:35:27;42.60;21.90
69895;DHT22;57172;52.034;5.090;2022-08-11T10:37:55;43.00;22.30
69895;DHT22;57172;52.034;5.090;2022-08-11T10:40:37;43.40;21.50
69895;DHT22;57172;52.034;5.090;2022-08-11T10:43:06;43.70;21.70
69895;DHT22;57172;52.034;5.090;2022-08-11T10:45:43;44.20;20.90
69895;DHT22;57172;52.034;5.090;2022-08-11T10:48:35;44.10;21.40
69895;DHT22;57172;52.034;5.090;2022-08-11T10:51:04;44.00;21.30
69895;DHT22;57172;52.034;5.090;2022-08-11T10:53:47;44.20;21.20
69895;DHT22;57172;52.034;5.090;2022-08-11T10:56:39;44.40;21.00
69895;DHT22;57172;52.034;5.090;2022-08-11T10:59:27;44.60;21.20
69895;DHT22;57172;52.034;5.090;2022-08-11T11:01:56;44.80;21.10
69895;DHT22;57172;52.034;5.090;2022-08-11T11:04:57;44.90;20.80
69895;DHT22;57172;52.034;5.090;2022-08-11T11:10:15;45.30;20.50
69895;DHT22;57172;52.034;5.090;2022-08-11T11:12:46;45.00;20.20
69895;DHT22;57172;52.034;5.090;2022-08-11T11:15:36;44.70;20.30
69895;DHT22;57172;52.034;5.090;2022-08-11T11:18:26;44.30;20.80
69895;DHT22;57172;52.034;5.090;2022-08-11T11:21:05;44.20;21.30
69895;DHT22;57172;52.034;5.090;2022-08-11T11:29:19;44.90;20.50
69895;DHT22;57172;52.034;5.090;2022-08-11T11:37:53;45.60;20.20
69895;DHT22;57172;52.034;5.090;2022-08-11T11:40:30;45.70;19.70
69895;DHT22;57172;52.034;5.090;2022-08-11T11:42:58;45.60;20.00
69895;DHT22;57172;52.034;5.090;2022-08-11T11:45:26;45.70;20.10
69895;DHT22;57172;52.034;5.090;2022-08-11T11:47:55;45.90;19.80
69895;DHT22;57172;52.034;5.090;2022-08-11T11:50:27;46.20;19.60
69895;DHT22;57172;52.034;5.090;2022-08-11T11:53:00;46.40;19.20
69895;DHT22;57172;52.034;5.090;2022-08-11T11:55:29;46.50;19.20
69895;DHT22;57172;52.034;5.090;2022-08-11T11:57:59;46.60;19.20
69895;DHT22;57172;52.034;5.090;2022-08-11T12:00:45;46.70;18.40
69895;DHT22;57172;52.034;5.090;2022-08-11T12:03:32;46.70;18.80
69895;DHT22;57172;52.034;5.090;2022-08-11T12:06:01;46.90;18.70
69895;DHT22;57172;52.034;5.090;2022-08-11T12:08:29;47.10;18.60
69895;DHT22;57172;52.034;5.090;2022-08-11T12:11:09;47.30;18.50
69895;DHT22;57172;52.034;5.090;2022-08-11T12:13:58;47.30;18.20
69895;DHT22;57172;52.034;5.090;2022-08-11T12:16:27;47.00;18.60
69895;DHT22;57172;52.034;5.090;2022-08-11T12:19:16;47.00;18.50
69895;DHT22;57172;52.034;5.090;2022-08-11T12:21:43;47.10;18.10
69895;DHT22;57172;52.034;5.090;2022-08-11T12:24:31;46.80;18.40
69895;DHT22;57172;52.034;5.090;2022-08-11T12:27:18;47.00;18.40
69895;DHT22;57172;52.034;5.090;2022-08-11T12:29:59;47.10;18.10
69895;DHT22;57172;52.034;5.090;2022-08-11T12:32:29;47.00;18.20
69895;DHT22;57172;52.034;5.090;2022-08-11T12:34:57;46.80;18.10
69895;DHT22;57172;52.034;5.090;2022-08-11T12:37:45;46.70;18.50
69895;DHT22;57172;52.034;5.090;2022-08-11T12:40:18;46.80;18.40
69895;DHT22;57172;52.034;5.090;2022-08-11T12:43:29;47.10;18.20
69895;DHT22;57172;52.034;5.090;2022-08-11T12:46:28;47.30;18.10
69895;DHT22;57172;52.034;5.090;2022-08-11T12:48:58;47.40;18.30
69895;DHT22;57172;52.034;5.090;2022-08-11T12:51:49;47.50;18.30
69895;DHT22;57172;52.034;5.090;2022-08-11T12:55:02;47.70;17.90
69895;DHT22;57172;52.034;5.090;2022-08-11T12:57:46;47.60;18.20
69895;DHT22;57172;52.034;5.090;2022-08-11T13:00:32;47.90;18.20
69895;DHT22;57172;52.034;5.090;2022-08-11T13:03:19;48.00;17.30
69895;DHT22;57172;52.034;5.090;2022-08-11T13:06:05;47.80;17.70
69895;DHT22;57172;52.034;5.090;2022-08-11T13:08:35;48.00;18.20
69895;DHT22;57172;52.034;5.090;2022-08-11T13:11:03;48.20;17.80
69895;DHT22;57172;52.034;5.090;2022-08-11T13:13:50;48.10;17.70
69895;DHT22;57172;52.034;5.090;2022-08-11T13:16:34;47.90;17.80
69895;DHT22;57172;52.034;5.090;2022-08-11T13:19:22;47.70;17.70
69895;DHT22;57172;52.034;5.090;2022-08-11T13:21:50;47.40;18.20
69895;DHT22;57172;52.034;5.090;2022-08-11T13:24:19;47.60;17.90
69895;DHT22;57172;52.034;5.090;2022-08-11T13:26:47;47.80;17.90
69895;DHT22;57172;52.034;5.090;2022-08-11T13:29:18;47.60;18.10
69895;DHT22;57172;52.034;5.090;2022-08-11T13:31:46;47.50;18.00
69895;DHT22;57172;52.034;5.090;2022-08-11T13:34:18;47.50;18.10
69895;DHT22;57172;52.034;5.090;2022-08-11T13:36:52;47.60;17.70
69895;DHT22;57172;52.034;5.090;2022-08-11T13:39:29;47.60;17.80
69895;DHT22;57172;52.034;5.090;2022-08-11T13:41:59;47.70;18.30
69895;DHT22;57172;52.034;5.090;2022-08-11T13:44:28;47.60;18.10
69895;DHT22;57172;52.034;5.090;2022-08-11T13:47:00;47.40;18.10
69895;DHT22;57172;52.034;5.090;2022-08-11T13:49:34;47.50;18.30
69895;DHT22;57172;52.034;5.090;2022-08-11T13:52:01;47.80;18.10
69895;DHT22;57172;52.034;5.090;2022-08-11T13:54:31;48.00;17.60
69895;DHT22;57172;52.034;5.090;2022-08-11T13:57:05;48.20;17.50
69895;DHT22;57172;52.034;5.090;2022-08-11T13:59:35;47.90;17.70
69895;DHT22;57172;52.034;5.090;2022-08-11T14:02:20;47.80;17.70
69895;DHT22;57172;52.034;5.090;2022-08-11T14:07:26;47.60;17.70
69895;DHT22;57172;52.034;5.090;2022-08-11T14:09:58;47.50;18.20
69895;DHT22;57172;52.034;5.090;2022-08-11T14:12:28;47.50;18.00
69895;DHT22;57172;52.034;5.090;2022-08-11T14:15:20;47.50;17.80
69895;DHT22;57172;52.034;5.090;2022-08-11T14:17:56;47.30;18.40
69895;DHT22;57172;52.034;5.090;2022-08-11T14:20:28;47.40;18.00
69895;DHT22;57172;52.034;5.090;2022-08-11T14:23:15;47.50;17.70
69895;DHT22;57172;52.034;5.090;2022-08-11T14:25:43;47.40;18.10
69895;DHT22;57172;52.034;5.090;2022-08-11T14:28:32;47.30;17.90
69895;DHT22;57172;52.034;5.090;2022-08-11T14:31:09;46.90;18.00
69895;DHT22;57172;52.034;5.090;2022-08-11T14:33:37;46.70;18.60
69895;DHT22;57172;52.034;5.090;2022-08-11T14:36:26;46.60;18.40
69895;DHT22;57172;52.034;5.090;2022-08-11T14:38:54;46.60;18.40
69895;DHT22;57172;52.034;5.090;2022-08-11T14:41:22;46.30;18.20
69895;DHT22;57172;52.034;5.090;2022-08-11T14:44:30;45.80;18.40
69895;DHT22;57172;52.034;5.090;2022-08-11T14:47:17;45.30;19.30
69895;DHT22;57172;52.034;5.090;2022-08-11T14:49:53;45.00;19.40
69895;DHT22;57172;52.034;5.090;2022-08-11T14:52:36;44.80;19.30
69895;DHT22;57172;52.034;5.090;2022-08-11T14:55:05;44.80;19.30
69895;DHT22;57172;52.034;5.090;2022-08-11T14:57:52;44.70;19.60
69895;DHT22;57172;52.034;5.090;2022-08-11T15:00:22;44.60;20.00
69895;DHT22;57172;52.034;5.090;2022-08-11T15:02:50;44.80;19.80
69895;DHT22;57172;52.034;5.090;2022-08-11T15:08:20;45.20;19.60
69895;DHT22;57172;52.034;5.090;2022-08-11T15:11:13;45.10;19.60
69895;DHT22;57172;52.034;5.090;2022-08-11T15:14:01;45.00;19.60
69895;DHT22;57172;52.034;5.090;2022-08-11T15:16:28;45.10;19.50
69895;DHT22;57172;52.034;5.090;2022-08-11T15:19:15;44.80;19.70
69895;DHT22;57172;52.034;5.090;2022-08-11T15:21:42;44.80;19.60
69895;DHT22;57172;52.034;5.090;2022-08-11T15:24:28;44.70;19.70
69895;DHT22;57172;52.034;5.090;2022-08-11T15:26:57;44.40;19.70
69895;DHT22;57172;52.034;5.090;2022-08-11T15:29:45;44.10;19.90
69895;DHT22;57172;52.034;5.090;2022-08-11T15:32:32;43.80;20.10
69895;DHT22;57172;52.034;5.090;2022-08-11T15:35:18;43.60;20.20
69895;DHT22;57172;52.034;5.090;2022-08-11T15:38:06;43.30;20.30
69895;DHT22;57172;52.034;5.090;2022-08-11T15:40:39;43.20;20.40
69895;DHT22;57172;52.034;5.090;2022-08-11T15:43:31;43.30;20.40
69895;DHT22;57172;52.034;5.090;2022-08-11T15:46:29;43.10;20.70
69895;DHT22;57172;52.034;5.090;2022-08-11T15:49:00;42.90;20.40
69895;DHT22;57172;52.034;5.090;2022-08-11T15:51:47;42.90;20.50
69895;DHT22;57172;52.034;5.090;2022-08-11T15:54:17;42.80;19.80
69895;DHT22;57172;52.034;5.090;2022-08-11T15:56:48;42.70;20.00
69895;DHT22;57172;52.034;5.090;2022-08-11T15:59:18;42.70;20.00
69895;DHT22;57172;52.034;5.090;2022-08-11T16:02:12;42.50;20.00
69895;DHT22;57172;52.034;5.090;2022-08-11T16:05:00;42.40;20.30
69895;DHT22;57172;52.034;5.090;2022-08-11T16:07:30;42.50;20.10
69895;DHT22;57172;52.034;5.090;2022-08-11T16:10:12;42.60;20.30
69895;DHT22;57172;52.034;5.090;2022-08-11T16:13:01;42.80;20.00
69895;DHT22;57172;52.034;5.090;2022-08-11T16:15:41;42.80;20.10
69895;DHT22;57172;52.034;5.090;2022-08-11T16:18:32;42.80;20.20
69895;DHT22;57172;52.034;5.090;2022-08-11T16:21:15;42.60;20.20
69895;DHT22;57172;52.034;5.090;2022-08-11T16:24:03;42.40;20.50
69895;DHT22;57172;52.034;5.090;2022-08-11T16:26:32;42.10;20.60
69895;DHT22;57172;52.034;5.090;2022-08-11T16:29:22;42.00;20.70
69895;DHT22;57172;52.034;5.090;2022-08-11T16:31:52;41.90;20.90
69895;DHT22;57172;52.034;5.090;2022-08-11T16:34:41;42.00;21.20
69895;DHT22;57172;52.034;5.090;2022-08-11T16:37:33;41.90;21.20
69895;DHT22;57172;52.034;5.090;2022-08-11T16:40:30;41.80;21.10
69895;DHT22;57172;52.034;5.090;2022-08-11T16:43:00;41.80;21.40
69895;DHT22;57172;52.034;5.090;2022-08-11T16:45:48;41.60;21.20
69895;DHT22;57172;52.034;5.090;2022-08-11T16:48:36;41.30;21.40
69895;DHT22;57172;52.034;5.090;2022-08-11T16:51:10;41.00;21.70
69895;DHT22;57172;52.034;5.090;2022-08-11T16:53:38;40.90;21.80
69895;DHT22;57172;52.034;5.090;2022-08-11T16:59:11;40.70;22.10
69895;DHT22;57172;52.034;5.090;2022-08-11T17:04:26;40.50;22.30
69895;DHT22;57172;52.034;5.090;2022-08-11T17:07:13;40.50;22.30
69895;DHT22;57172;52.034;5.090;2022-08-11T17:10:24;40.40;22.40
69895;DHT22;57172;52.034;5.090;2022-08-11T17:13:27;40.30;22.60
69895;DHT22;57172;52.034;5.090;2022-08-11T17:15:59;40.20;22.60
69895;DHT22;57172;52.034;5.090;2022-08-11T17:19:00;40.00;23.00
69895;DHT22;57172;52.034;5.090;2022-08-11T17:21:31;39.90;22.90
69895;DHT22;57172;52.034;5.090;2022-08-11T17:24:03;39.60;23.40
69895;DHT22;57172;52.034;5.090;2022-08-11T17:26:44;39.70;23.50
69895;DHT22;57172;52.034;5.090;2022-08-11T17:29:40;39.70;23.50
69895;DHT22;57172;52.034;5.090;2022-08-11T17:32:29;39.80;23.50
69895;DHT22;57172;52.034;5.090;2022-08-11T17:35:27;39.80;23.70
69895;DHT22;57172;52.034;5.090;2022-08-11T17:38:09;39.90;23.20
69895;DHT22;57172;52.034;5.090;2022-08-11T17:40:40;39.60;23.20
69895;DHT22;57172;52.034;5.090;2022-08-11T17:43:29;39.30;23.80
69895;DHT22;57172;52.034;5.090;2022-08-11T17:46:16;39.40;24.00
69895;DHT22;57172;52.034;5.090;2022-08-11T17:49:07;39.50;23.80
69895;DHT22;57172;52.034;5.090;2022-08-11T17:51:36;39.60;23.80
69895;DHT22;57172;52.034;5.090;2022-08-11T17:54:22;39.60;23.80
69895;DHT22;57172;52.034;5.090;2022-08-11T17:57:12;39.40;23.90
69895;DHT22;57172;52.034;5.090;2022-08-11T17:59:58;39.10;23.90
69895;DHT22;57172;52.034;5.090;2022-08-11T18:02:33;38.80;24.10
69895;DHT22;57172;52.034;5.090;2022-08-11T18:05:20;38.70;24.40
69895;DHT22;57172;52.034;5.090;2022-08-11T18:07:51;38.80;24.40
69895;DHT22;57172;52.034;5.090;2022-08-11T18:10:38;38.80;24.40
69895;DHT22;57172;52.034;5.090;2022-08-11T18:13:26;38.70;24.50
69895;DHT22;57172;52.034;5.090;2022-08-11T18:16:12;38.70;24.70
69895;DHT22;57172;52.034;5.090;2022-08-11T18:18:58;38.80;24.50
69895;DHT22;57172;52.034;5.090;2022-08-11T18:21:45;38.60;24.80
69895;DHT22;57172;52.034;5.090;2022-08-11T18:24:49;37.90;25.30
69895;DHT22;57172;52.034;5.090;2022-08-11T18:27:39;37.00;26.00
69895;DHT22;57172;52.034;5.090;2022-08-11T18:30:27;36.10;26.50
69895;DHT22;57172;52.034;5.090;2022-08-11T18:33:13;35.30;27.10
69895;DHT22;57172;52.034;5.090;2022-08-11T18:36:25;34.60;27.60
69895;DHT22;57172;52.034;5.090;2022-08-11T18:39:12;34.00;28.30
69895;DHT22;57172;52.034;5.090;2022-08-11T18:42:03;33.60;28.70
69895;DHT22;57172;52.034;5.090;2022-08-11T18:44:59;33.20;29.00
69895;DHT22;57172;52.034;5.090;2022-08-11T18:47:50;32.90;29.40
69895;DHT22;57172;52.034;5.090;2022-08-11T18:50:38;32.70;29.70
69895;DHT22;57172;52.034;5.090;2022-08-11T18:53:49;32.40;29.90
69895;DHT22;57172;52.034;5.090;2022-08-11T18:56:36;32.30;30.00
69895;DHT22;57172;52.034;5.090;2022-08-11T18:59:24;32.10;30.20
69895;DHT22;57172;52.034;5.090;2022-08-11T19:02:12;32.00;30.80
69895;DHT22;57172;52.034;5.090;2022-08-11T19:05:17;31.90;31.20
69895;DHT22;57172;52.034;5.090;2022-08-11T19:08:27;31.70;31.00
69895;DHT22;57172;52.034;5.090;2022-08-11T19:11:13;31.50;31.00
69895;DHT22;57172;52.034;5.090;2022-08-11T19:14:02;31.30;31.30
69895;DHT22;57172;52.034;5.090;2022-08-11T19:16:48;31.20;31.70
69895;DHT22;57172;52.034;5.090;2022-08-11T19:19:36;31.00;31.80
69895;DHT22;57172;52.034;5.090;2022-08-11T19:22:24;30.90;32.20
69895;DHT22;57172;52.034;5.090;2022-08-11T19:25:11;30.80;32.20
69895;DHT22;57172;52.034;5.090;2022-08-11T19:27:58;30.70;32.30
69895;DHT22;57172;52.034;5.090;2022-08-11T19:30:45;30.60;32.30
69895;DHT22;57172;52.034;5.090;2022-08-11T19:33:30;30.50;32.50
69895;DHT22;57172;52.034;5.090;2022-08-11T19:36:36;30.50;32.70
69895;DHT22;57172;52.034;5.090;2022-08-11T19:39:22;30.40;33.50
69895;DHT22;57172;52.034;5.090;2022-08-11T19:42:10;30.30;33.40
69895;DHT22;57172;52.034;5.090;2022-08-11T19:44:58;30.20;33.70
69895;DHT22;57172;52.034;5.090;2022-08-11T19:47:45;30.10;34.00
69895;DHT22;57172;52.034;5.090;2022-08-11T19:50:52;29.90;34.30
69895;DHT22;57172;52.034;5.090;2022-08-11T19:53:40;29.80;34.30
69895;DHT22;57172;52.034;5.090;2022-08-11T19:56:27;29.70;34.70
69895;DHT22;57172;52.034;5.090;2022-08-11T19:59:17;29.60;35.00
69895;DHT22;57172;52.034;5.090;2022-08-11T20:02:02;29.50;35.30
69895;DHT22;57172;52.034;5.090;2022-08-11T20:04:48;29.30;35.60
69895;DHT22;57172;52.034;5.090;2022-08-11T20:07:34;29.20;36.10
69895;DHT22;57172;52.034;5.090;2022-08-11T20:10:21;29.10;36.40
69895;DHT22;57172;52.034;5.090;2022-08-11T20:13:08;29.00;36.50
69895;DHT22;57172;52.034;5.090;2022-08-11T20:15:54;28.90;36.80
69895;DHT22;57172;52.034;5.090;2022-08-11T20:18:41;28.80;36.90